Time;durP1;ratioP1;P1;durP2;ratioP2;P2;SDS_P1;SDS_P2;PMS_P1;PMS_P2;Temp;Humidity;BMP_temperature;BMP_pressure;BME280_temperature;BME280_humidity;BME280_pressure;Samples;Min_cycle;Max_cycle;Signal;HPM_P1;HPM_P2
2024/04/14 00:00:42;;;;;;;6.87;5.17;;;19.00;99.90;;;;;;5390595;26;20234;-66
2024/04/14 00:03:08;;;;;;;6.60;5.20;;;18.90;99.90;;;;;;5385552;26;20240;-66
2024/04/14 00:05:34;;;;;;;9.23;5.73;;;18.90;99.90;;;;;;5398189;26;20467;-66
2024/04/14 00:08:00;;;;;;;7.60;6.27;;;18.90;99.90;;;;;;5395820;26;20792;-66
2024/04/14 00:10:25;;;;;;;8.57;5.80;;;18.80;99.90;;;;;;5398306;26;20684;-66
2024/04/14 00:12:51;;;;;;;8.63;5.97;;;18.70;99.90;;;;;;5395698;26;20234;-66
2024/04/14 00:15:17;;;;;;;9.07;5.90;;;18.70;99.90;;;;;;5395747;26;20257;-66
2024/04/14 00:17:44;;;;;;;8.00;6.00;;;18.70;99.90;;;;;;5397053;26;20222;-67
2024/04/14 00:20:11;;;;;;;7.13;6.20;;;18.70;99.90;;;;;;5398554;26;21198;-67
2024/04/14 00:22:37;;;;;;;6.80;5.90;;;18.70;99.90;;;;;;5391322;26;20651;-66
2024/04/14 00:25:03;;;;;;;6.37;5.20;;;18.70;99.90;;;;;;5416429;26;20917;-66
2024/04/14 00:27:28;;;;;;;10.57;6.30;;;18.70;99.90;;;;;;5394700;26;20471;-65
2024/04/14 00:29:54;;;;;;;10.07;6.40;;;18.70;99.90;;;;;;5391339;26;20245;-67
2024/04/14 00:32:19;;;;;;;6.07;5.30;;;18.70;99.90;;;;;;5387369;26;21035;-66
2024/04/14 00:34:45;;;;;;;8.43;5.97;;;18.60;99.90;;;;;;5388908;26;20588;-66
2024/04/14 00:37:11;;;;;;;6.30;5.70;;;18.60;99.90;;;;;;5383646;26;20245;-66
2024/04/14 00:39:36;;;;;;;10.73;5.13;;;18.60;99.90;;;;;;5394945;26;20225;-66
2024/04/14 00:42:02;;;;;;;7.20;6.10;;;18.60;99.90;;;;;;5394099;26;20259;-66
2024/04/14 00:44:28;;;;;;;7.10;5.23;;;18.60;99.90;;;;;;5396678;26;20301;-66
2024/04/14 00:46:54;;;;;;;7.30;5.60;;;18.60;99.90;;;;;;5384960;26;20237;-66
2024/04/14 00:49:21;;;;;;;12.70;6.30;;;18.60;99.90;;;;;;5396332;26;20332;-66
2024/04/14 00:51:47;;;;;;;9.63;6.43;;;18.60;99.90;;;;;;5389889;26;21072;-66
2024/04/14 00:54:17;;;;;;;8.73;6.53;;;18.50;99.90;;;;;;5391450;26;20551;-66
2024/04/14 00:56:45;;;;;;;7.73;5.90;;;18.50;99.90;;;;;;5380658;26;20234;-66
2024/04/14 00:59:11;;;;;;;8.03;6.03;;;18.50;99.90;;;;;;5387013;26;21023;-66
2024/04/14 01:01:37;;;;;;;10.27;6.17;;;18.40;99.90;;;;;;5387141;26;20494;-66
2024/04/14 01:04:03;;;;;;;6.80;6.20;;;18.50;99.90;;;;;;5382808;26;20589;-66
2024/04/14 01:06:28;;;;;;;7.13;5.87;;;18.40;99.90;;;;;;5387466;26;20241;-66
2024/04/14 01:08:54;;;;;;;7.57;5.70;;;18.30;99.90;;;;;;5387639;26;20233;-66
2024/04/14 01:11:20;;;;;;;7.10;6.10;;;18.30;99.90;;;;;;5389682;26;20229;-66
2024/04/14 01:13:47;;;;;;;8.13;6.07;;;18.30;99.90;;;;;;5386335;26;20237;-66
2024/04/14 01:16:12;;;;;;;7.27;6.10;;;18.30;99.90;;;;;;5384066;26;20470;-66
2024/04/14 01:18:38;;;;;;;7.40;5.83;;;18.30;99.90;;;;;;5388588;26;20521;-66
2024/04/14 01:21:05;;;;;;;6.60;5.90;;;18.30;99.90;;;;;;5394127;26;20332;-67
2024/04/14 01:23:30;;;;;;;8.90;5.87;;;18.30;99.90;;;;;;5391560;26;20470;-67
2024/04/14 01:25:56;;;;;;;9.53;5.83;;;18.20;99.90;;;;;;5396880;26;20920;-66
2024/04/14 01:28:22;;;;;;;10.50;5.90;;;18.20;99.90;;;;;;5394431;26;20312;-66
2024/04/14 01:30:47;;;;;;;8.90;5.67;;;18.20;99.90;;;;;;5390720;26;20230;-66
2024/04/14 01:33:13;;;;;;;7.80;5.03;;;18.20;99.90;;;;;;5394762;26;21660;-66
2024/04/14 01:35:38;;;;;;;6.97;5.67;;;18.10;99.90;;;;;;5391128;26;20635;-67
2024/04/14 01:38:04;;;;;;;5.80;5.30;;;18.10;99.90;;;;;;5384195;26;20272;-66
2024/04/14 01:40:30;;;;;;;6.67;5.97;;;18.10;99.90;;;;;;5392036;26;20229;-67
2024/04/14 01:42:55;;;;;;;6.40;5.77;;;18.10;99.90;;;;;;5387829;26;20313;-66
2024/04/14 01:45:21;;;;;;;8.13;5.80;;;18.00;99.90;;;;;;5399196;26;20225;-66
2024/04/14 01:47:46;;;;;;;9.10;5.53;;;18.00;99.90;;;;;;5397014;26;20688;-66
2024/04/14 01:50:12;;;;;;;5.73;5.13;;;18.00;99.90;;;;;;5388042;26;20761;-66
2024/04/14 01:52:38;;;;;;;11.00;6.50;;;17.90;99.90;;;;;;5399450;26;20399;-65
2024/04/14 01:55:03;;;;;;;9.90;5.90;;;17.90;99.90;;;;;;5394382;26;20284;-66
2024/04/14 01:57:29;;;;;;;6.90;5.50;;;17.90;99.90;;;;;;5394423;26;21063;-66
2024/04/14 01:59:57;;;;;;;5.57;4.93;;;17.90;99.90;;;;;;5381675;26;20237;-66
2024/04/14 02:02:23;;;;;;;8.70;5.80;;;17.80;99.90;;;;;;5399597;26;20341;-67
2024/04/14 02:04:48;;;;;;;6.13;5.30;;;17.80;99.90;;;;;;5383952;26;20623;-66
2024/04/14 02:07:14;;;;;;;6.13;5.30;;;17.80;99.90;;;;;;5382319;26;20241;-66
2024/04/14 02:09:39;;;;;;;6.23;5.40;;;17.70;99.90;;;;;;5386997;26;20272;-66
2024/04/14 02:12:05;;;;;;;7.50;5.90;;;17.70;99.90;;;;;;5387667;26;20369;-66
2024/04/14 02:14:31;;;;;;;7.40;5.80;;;17.60;99.90;;;;;;5395186;26;20233;-66
2024/04/14 02:16:56;;;;;;;7.60;5.93;;;17.60;99.90;;;;;;5377522;26;20292;-66
2024/04/14 02:19:22;;;;;;;7.77;5.77;;;17.50;99.90;;;;;;5388317;26;20287;-67
2024/04/14 02:21:48;;;;;;;6.40;5.80;;;17.50;99.90;;;;;;5395992;26;20754;-67
2024/04/14 02:24:13;;;;;;;11.63;5.10;;;17.50;99.90;;;;;;5385509;26;20284;-67
2024/04/14 02:26:39;;;;;;;9.93;5.20;;;17.60;99.90;;;;;;5395388;26;20240;-66
2024/04/14 02:29:04;;;;;;;8.70;5.00;;;17.60;99.90;;;;;;5385345;26;20234;-66
2024/04/14 02:31:30;;;;;;;6.63;5.20;;;17.60;99.90;;;;;;5397572;26;20270;-67
2024/04/14 02:33:55;;;;;;;8.93;5.70;;;17.60;99.90;;;;;;5390494;26;20229;-67
2024/04/14 02:36:21;;;;;;;7.27;4.93;;;17.60;99.90;;;;;;5386038;26;20225;-67
2024/04/14 02:38:48;;;;;;;8.03;5.23;;;17.50;99.90;;;;;;5383527;26;20240;-67
2024/04/14 02:41:13;;;;;;;9.63;5.30;;;17.60;99.90;;;;;;5389155;26;20529;-67
2024/04/14 02:43:40;;;;;;;8.30;5.30;;;17.60;99.90;;;;;;5396347;26;21641;-67
2024/04/14 02:46:05;;;;;;;5.17;4.50;;;17.50;99.90;;;;;;5393167;26;20237;-67
2024/04/14 02:48:31;;;;;;;5.40;4.90;;;17.50;99.90;;;;;;5388227;26;20518;-67
2024/04/14 02:50:56;;;;;;;8.77;5.23;;;17.50;99.90;;;;;;5396618;26;20284;-67
2024/04/14 02:53:22;;;;;;;8.17;5.00;;;17.50;99.90;;;;;;5395214;26;20279;-68
2024/04/14 02:55:48;;;;;;;6.90;4.80;;;17.50;99.90;;;;;;5401647;26;20229;-67
2024/04/14 02:58:14;;;;;;;6.57;5.00;;;17.40;99.90;;;;;;5385309;26;20541;-67
2024/04/14 03:00:39;;;;;;;8.60;5.00;;;17.40;99.90;;;;;;5389033;26;20750;-66
2024/04/14 03:03:05;;;;;;;6.30;5.00;;;17.40;99.90;;;;;;5381895;26;20234;-66
2024/04/14 03:05:30;;;;;;;6.00;5.03;;;17.40;99.90;;;;;;5383474;26;20249;-66
2024/04/14 03:07:57;;;;;;;6.30;4.73;;;17.40;99.90;;;;;;5380686;26;20298;-67
2024/04/14 03:10:23;;;;;;;8.57;4.87;;;17.40;99.90;;;;;;5389359;26;20609;-66
2024/04/14 03:12:50;;;;;;;7.83;4.80;;;17.30;99.90;;;;;;5387074;26;20516;-67
2024/04/14 03:15:15;;;;;;;8.17;5.07;;;17.30;99.90;;;;;;5387258;26;20286;-65
2024/04/14 03:17:41;;;;;;;6.00;4.90;;;17.20;99.90;;;;;;5381513;26;20479;-66
2024/04/14 03:20:07;;;;;;;6.50;5.30;;;17.20;99.90;;;;;;5385404;26;20225;-67
2024/04/14 03:22:33;;;;;;;5.40;4.90;;;17.20;99.90;;;;;;5394068;26;20376;-67
2024/04/14 03:24:58;;;;;;;5.30;4.80;;;17.20;99.90;;;;;;5385722;26;20911;-67
2024/04/14 03:27:24;;;;;;;5.57;4.97;;;17.20;99.90;;;;;;5388035;26;20237;-67
2024/04/14 03:29:50;;;;;;;8.80;4.93;;;17.20;99.90;;;;;;5383237;26;20242;-67
2024/04/14 03:32:15;;;;;;;8.43;5.07;;;17.10;99.90;;;;;;5391424;26;20238;-67
2024/04/14 03:34:44;;;;;;;6.10;5.20;;;17.10;99.90;;;;;;5390957;26;20221;-67
2024/04/14 03:37:13;;;;;;;8.03;5.73;;;17.10;99.90;;;;;;5382097;26;20585;-66
2024/04/14 03:39:38;;;;;;;5.30;4.50;;;17.20;99.90;;;;;;5391021;26;21071;-67
2024/04/14 03:42:04;;;;;;;5.60;5.10;;;17.20;99.90;;;;;;5389674;26;20475;-67
2024/04/14 03:44:30;;;;;;;7.33;5.60;;;17.10;99.90;;;;;;5382553;26;20257;-66
2024/04/14 03:46:56;;;;;;;5.83;4.70;;;17.10;99.90;;;;;;5386585;26;20230;-67
2024/04/14 03:49:22;;;;;;;5.87;4.80;;;17.10;99.90;;;;;;5393443;26;20459;-67
2024/04/14 03:51:47;;;;;;;6.60;5.00;;;17.10;99.90;;;;;;5389462;26;20594;-67
2024/04/14 03:54:13;;;;;;;6.33;4.00;;;17.00;99.90;;;;;;5392495;26;21171;-67
2024/04/14 03:56:38;;;;;;;6.50;4.53;;;17.00;99.90;;;;;;5392904;26;20739;-66
2024/04/14 03:59:04;;;;;;;6.33;4.60;;;17.10;99.90;;;;;;5394925;26;20723;-67
2024/04/14 04:01:30;;;;;;;6.00;4.57;;;17.00;99.90;;;;;;5393866;26;20288;-66
2024/04/14 04:03:56;;;;;;;5.17;4.40;;;17.00;99.90;;;;;;5394187;26;20462;-67
2024/04/14 04:06:21;;;;;;;5.00;4.07;;;17.00;99.90;;;;;;5391595;26;20305;-67
2024/04/14 04:08:47;;;;;;;6.40;5.10;;;17.00;99.90;;;;;;5399358;26;20240;-66
2024/04/14 04:11:13;;;;;;;4.80;4.23;;;17.00;99.90;;;;;;5401094;26;20259;-66
2024/04/14 04:13:38;;;;;;;5.47;4.87;;;17.00;99.90;;;;;;5393264;26;20523;-66
2024/04/14 04:16:05;;;;;;;6.10;4.47;;;17.00;99.90;;;;;;5395200;26;20695;-66
2024/04/14 04:18:32;;;;;;;5.70;4.43;;;17.00;99.90;;;;;;5391333;26;20349;-67
2024/04/14 04:21:00;;;;;;;5.13;4.37;;;17.00;99.90;;;;;;5398259;26;20463;-66
2024/04/14 04:23:26;;;;;;;4.77;4.27;;;16.90;99.90;;;;;;5391500;26;20597;-67
2024/04/14 04:25:52;;;;;;;6.37;4.60;;;16.90;99.90;;;;;;5395866;26;20507;-67
2024/04/14 04:28:18;;;;;;;4.70;4.03;;;17.00;99.90;;;;;;5391778;26;20584;-66
2024/04/14 04:30:44;;;;;;;6.93;5.10;;;16.90;99.90;;;;;;5398424;26;20646;-66
2024/04/14 04:33:09;;;;;;;4.43;3.63;;;17.00;99.90;;;;;;5383974;26;20297;-66
2024/04/14 04:35:35;;;;;;;5.77;4.27;;;16.90;99.90;;;;;;5398166;26;20229;-67
2024/04/14 04:38:01;;;;;;;5.07;4.57;;;16.90;99.90;;;;;;5385306;26;20245;-66
2024/04/14 04:40:27;;;;;;;4.87;3.83;;;16.90;99.90;;;;;;5390269;26;20237;-66
2024/04/14 04:42:52;;;;;;;6.70;4.50;;;16.80;99.90;;;;;;5389306;26;21148;-66
2024/04/14 04:45:18;;;;;;;5.90;4.60;;;16.80;99.90;;;;;;5391779;26;20518;-66
2024/04/14 04:47:46;;;;;;;6.70;5.07;;;16.80;99.90;;;;;;5385074;26;20336;-66
2024/04/14 04:50:11;;;;;;;4.83;4.17;;;16.90;99.90;;;;;;5383391;26;20512;-66
2024/04/14 04:52:37;;;;;;;4.70;3.97;;;16.90;99.90;;;;;;5387680;26;20459;-66
2024/04/14 04:55:02;;;;;;;4.50;4.10;;;16.90;99.90;;;;;;5382570;26;20234;-66
2024/04/14 04:57:28;;;;;;;6.10;5.10;;;16.90;99.90;;;;;;5386739;26;20326;-66
2024/04/14 04:59:54;;;;;;;5.70;4.13;;;16.80;99.90;;;;;;5391184;26;20604;-66
2024/04/14 05:02:19;;;;;;;5.30;4.80;;;16.80;99.90;;;;;;5397168;26;20486;-66
2024/04/14 05:04:45;;;;;;;7.30;4.47;;;16.70;99.90;;;;;;5394081;26;20238;-66
2024/04/14 05:07:10;;;;;;;6.10;4.53;;;16.70;99.90;;;;;;5389497;26;20284;-66
2024/04/14 05:09:36;;;;;;;5.23;4.03;;;16.80;99.90;;;;;;5393238;26;20339;-66
2024/04/14 05:12:02;;;;;;;7.23;4.60;;;16.80;99.90;;;;;;5394336;26;20238;-67
2024/04/14 05:14:28;;;;;;;4.80;4.40;;;16.80;99.90;;;;;;5386102;26;20306;-66
2024/04/14 05:16:54;;;;;;;4.73;4.27;;;16.80;99.90;;;;;;5394836;26;20460;-67
2024/04/14 05:19:19;;;;;;;6.30;4.23;;;16.90;99.90;;;;;;5395693;26;20297;-67
2024/04/14 05:21:45;;;;;;;8.27;4.63;;;16.90;99.90;;;;;;5389713;26;20237;-67
2024/04/14 05:24:11;;;;;;;5.33;4.83;;;16.90;99.90;;;;;;5389248;26;20662;-66
2024/04/14 05:26:37;;;;;;;4.90;4.37;;;16.90;99.90;;;;;;5397080;26;20474;-66
2024/04/14 05:29:03;;;;;;;6.73;4.87;;;16.90;99.90;;;;;;5393812;26;21234;-67
2024/04/14 05:31:29;;;;;;;5.97;4.57;;;16.90;99.90;;;;;;5398935;26;20466;-67
2024/04/14 05:33:56;;;;;;;8.33;4.93;;;16.90;99.90;;;;;;5396374;26;20245;-67
2024/04/14 05:36:21;;;;;;;4.77;4.10;;;17.00;99.90;;;;;;5397206;26;20275;-67
2024/04/14 05:38:50;;;;;;;10.90;4.13;;;17.00;99.90;;;;;;5398348;26;21010;-67
2024/04/14 05:41:15;;;;;;;5.93;4.43;;;16.90;99.90;;;;;;5385697;26;20330;-67
2024/04/14 05:43:42;;;;;;;8.03;4.23;;;16.90;99.90;;;;;;5390317;26;20960;-67
2024/04/14 05:46:07;;;;;;;6.83;4.10;;;17.00;99.90;;;;;;5387235;26;20323;-67
2024/04/14 05:48:33;;;;;;;5.27;4.77;;;17.00;99.90;;;;;;5404539;26;20557;-67
2024/04/14 05:50:58;;;;;;;6.43;5.00;;;17.10;99.90;;;;;;5388963;26;20610;-66
2024/04/14 05:53:24;;;;;;;5.90;4.63;;;17.10;99.90;;;;;;5393853;26;20293;-67
2024/04/14 05:55:49;;;;;;;5.37;4.60;;;17.10;99.90;;;;;;5396628;26;20735;-67
2024/04/14 05:58:15;;;;;;;8.50;4.20;;;17.10;99.90;;;;;;5390878;26;20234;-67
2024/04/14 06:00:41;;;;;;;8.10;4.50;;;17.20;99.90;;;;;;5397854;26;20271;-68
2024/04/14 06:03:08;;;;;;;7.13;4.60;;;17.20;99.90;;;;;;5393424;26;20722;-68
2024/04/14 06:05:33;;;;;;;6.60;5.33;;;17.20;99.90;;;;;;5392170;26;20303;-67
2024/04/14 06:07:59;;;;;;;5.20;4.63;;;17.20;99.90;;;;;;5387010;26;20860;-66
2024/04/14 06:10:25;;;;;;;4.63;4.23;;;17.20;99.90;;;;;;5389437;26;20348;-66
2024/04/14 06:12:51;;;;;;;5.97;4.37;;;17.30;99.90;;;;;;5391127;26;20374;-68
2024/04/14 06:15:16;;;;;;;4.87;4.40;;;17.30;99.90;;;;;;5394978;26;20233;-67
2024/04/14 06:17:42;;;;;;;4.80;4.30;;;17.30;99.90;;;;;;5385827;26;20238;-66
2024/04/14 06:20:08;;;;;;;5.10;4.60;;;17.30;99.90;;;;;;5391980;26;20234;-66
2024/04/14 06:22:33;;;;;;;5.30;4.50;;;17.40;99.90;;;;;;5391667;26;20332;-67
2024/04/14 06:24:59;;;;;;;7.17;4.93;;;17.50;99.90;;;;;;5385995;26;20235;-66
2024/04/14 06:27:25;;;;;;;4.97;4.10;;;17.50;99.90;;;;;;5398176;26;20237;-67
2024/04/14 06:29:50;;;;;;;5.57;4.53;;;17.50;99.90;;;;;;5389244;26;20230;-66
2024/04/14 06:32:16;;;;;;;5.90;4.00;;;17.60;99.90;;;;;;5395880;26;20366;-66
2024/04/14 06:34:42;;;;;;;5.43;4.50;;;17.60;99.90;;;;;;5391019;26;20784;-66
2024/04/14 06:37:10;;;;;;;4.80;4.30;;;17.70;99.90;;;;;;5387502;26;20714;-66
2024/04/14 06:39:36;;;;;;;7.60;4.30;;;17.70;99.90;;;;;;5393898;26;20291;-67
2024/04/14 06:42:04;;;;;;;5.10;4.60;;;17.70;99.90;;;;;;5394243;26;20489;-67
2024/04/14 06:44:30;;;;;;;4.97;4.47;;;17.90;99.90;;;;;;5382723;26;20562;-67
2024/04/14 06:46:56;;;;;;;6.43;4.50;;;17.90;99.90;;;;;;5386547;26;20566;-67
2024/04/14 06:49:21;;;;;;;5.30;4.80;;;18.00;99.90;;;;;;5386997;26;20716;-67
2024/04/14 06:51:47;;;;;;;9.33;4.07;;;18.00;99.90;;;;;;5394354;26;20233;-67
2024/04/14 06:54:13;;;;;;;4.63;4.23;;;18.00;99.90;;;;;;5397591;26;20221;-67
2024/04/14 06:56:38;;;;;;;5.83;4.80;;;18.20;99.90;;;;;;5389935;26;20302;-67
2024/04/14 06:59:04;;;;;;;7.40;4.07;;;18.20;99.90;;;;;;5396725;26;20746;-67
2024/04/14 07:01:29;;;;;;;7.20;4.50;;;18.30;99.90;;;;;;5385774;26;20285;-67
2024/04/14 07:03:55;;;;;;;5.00;4.33;;;18.30;99.90;;;;;;5390686;26;20275;-67
2024/04/14 07:06:20;;;;;;;5.53;4.63;;;18.30;99.90;;;;;;5378069;26;20271;-67
2024/04/14 07:08:46;;;;;;;5.97;4.47;;;18.30;99.90;;;;;;5395887;26;20292;-67
2024/04/14 07:11:11;;;;;;;4.80;4.30;;;18.40;99.90;;;;;;5389312;26;20322;-67
2024/04/14 07:13:38;;;;;;;5.03;4.10;;;18.50;99.90;;;;;;5393485;26;20316;-67
2024/04/14 07:16:04;;;;;;;4.77;4.37;;;18.50;99.90;;;;;;5385223;26;20242;-67
2024/04/14 07:18:30;;;;;;;6.40;4.90;;;18.50;99.90;;;;;;5382049;26;20459;-67
2024/04/14 07:20:56;;;;;;;6.90;5.00;;;18.60;99.90;;;;;;5394617;26;21171;-67
2024/04/14 07:23:21;;;;;;;7.30;4.33;;;18.60;99.90;;;;;;5384969;26;20302;-67
2024/04/14 07:25:47;;;;;;;6.53;4.37;;;18.60;99.90;;;;;;5385466;26;20226;-68
2024/04/14 07:28:12;;;;;;;6.07;4.13;;;18.60;99.90;;;;;;5387302;26;20318;-66
2024/04/14 07:30:38;;;;;;;6.83;4.50;;;18.70;99.90;;;;;;5390776;26;20248;-67
2024/04/14 07:33:04;;;;;;;5.37;4.37;;;18.70;99.90;;;;;;5393075;26;20645;-66
2024/04/14 07:35:29;;;;;;;8.63;4.30;;;18.80;99.90;;;;;;5398010;26;20485;-66
2024/04/14 07:37:55;;;;;;;5.30;4.60;;;18.80;99.90;;;;;;5381835;26;20241;-67
2024/04/14 07:40:20;;;;;;;7.80;4.47;;;18.90;99.90;;;;;;5389788;26;20738;-68
2024/04/14 07:42:46;;;;;;;5.47;4.37;;;19.00;99.90;;;;;;5374999;26;20306;-69
2024/04/14 07:45:12;;;;;;;6.93;4.67;;;19.10;99.90;;;;;;5392283;26;20226;-68
2024/04/14 07:47:37;;;;;;;5.17;4.43;;;19.20;99.90;;;;;;5384574;26;20292;-68
2024/04/14 07:50:03;;;;;;;4.83;4.30;;;19.30;99.90;;;;;;5383990;26;20225;-67
2024/04/14 07:52:31;;;;;;;4.93;4.40;;;19.40;99.90;;;;;;5388008;26;20790;-67
2024/04/14 07:54:57;;;;;;;6.77;4.10;;;19.50;99.90;;;;;;5391887;26;20474;-67
2024/04/14 07:57:23;;;;;;;6.20;4.50;;;19.60;99.90;;;;;;5390473;26;20466;-66
2024/04/14 07:59:49;;;;;;;5.33;4.70;;;19.70;99.90;;;;;;5389756;26;20229;-67
2024/04/14 08:02:14;;;;;;;7.23;4.57;;;19.70;99.90;;;;;;5386361;26;20305;-67
2024/04/14 08:04:40;;;;;;;5.53;4.17;;;19.80;99.90;;;;;;5392429;26;20537;-67
2024/04/14 08:07:12;;;;;;;7.40;4.50;;;19.90;99.90;;;;;;5397392;26;20367;-67
2024/04/14 08:09:45;;;;;;;5.60;4.23;;;19.80;99.90;;;;;;5388424;26;21601;-67
2024/04/14 08:12:10;;;;;;;6.80;5.67;;;20.00;99.90;;;;;;5393098;26;20505;-67
2024/04/14 08:14:36;;;;;;;5.80;4.30;;;20.10;99.90;;;;;;5393334;26;20776;-67
2024/04/14 08:17:02;;;;;;;6.60;4.30;;;20.10;99.90;;;;;;5385066;26;20284;-67
2024/04/14 08:19:27;;;;;;;11.20;4.67;;;20.30;99.90;;;;;;5393744;26;20248;-67
2024/04/14 08:21:53;;;;;;;9.00;4.50;;;20.30;99.90;;;;;;5398236;26;20598;-67
2024/04/14 08:24:18;;;;;;;3.90;3.50;;;20.30;99.90;;;;;;5392080;26;20263;-67
2024/04/14 08:26:44;;;;;;;4.77;4.13;;;20.40;99.90;;;;;;5388657;26;20245;-67
2024/04/14 08:29:09;;;;;;;4.87;3.90;;;20.40;99.90;;;;;;5391075;26;20233;-67
2024/04/14 08:31:35;;;;;;;7.70;4.07;;;20.40;99.90;;;;;;5393984;26;21548;-67
2024/04/14 08:34:01;;;;;;;7.47;4.50;;;20.60;99.90;;;;;;5394524;26;20225;-68
2024/04/14 08:36:26;;;;;;;6.23;4.33;;;20.60;99.90;;;;;;5387160;26;20237;-68
2024/04/14 08:38:52;;;;;;;8.70;4.33;;;20.60;99.90;;;;;;5393556;26;20354;-67
2024/04/14 08:41:18;;;;;;;5.20;4.70;;;20.80;99.90;;;;;;5391594;26;20302;-67
2024/04/14 08:43:44;;;;;;;5.73;4.80;;;20.90;99.90;;;;;;5389846;26;20232;-67
2024/04/14 08:46:13;;;;;;;7.40;5.50;;;21.00;99.90;;;;;;5387535;26;21231;-67
2024/04/14 08:48:41;;;;;;;5.33;4.70;;;21.10;99.90;;;;;;5391728;26;20288;-67
2024/04/14 08:51:08;;;;;;;5.00;4.07;;;21.10;99.90;;;;;;5382811;26;20462;-68
2024/04/14 08:53:36;;;;;;;7.67;4.40;;;21.10;99.90;;;;;;5380822;26;20532;-67
2024/04/14 08:56:02;;;;;;;8.33;4.90;;;21.20;99.90;;;;;;5391351;26;20596;-67
2024/04/14 08:58:31;;;;;;;6.90;4.70;;;21.20;99.90;;;;;;5390647;26;21181;-67
2024/04/14 09:01:02;;;;;;;11.37;4.33;;;21.20;99.90;;;;;;5392092;26;20459;-68
2024/04/14 09:03:31;;;;;;;5.40;4.30;;;21.30;99.90;;;;;;5391913;26;20537;-68
2024/04/14 09:06:02;;;;;;;7.50;4.47;;;21.40;99.90;;;;;;5398670;26;20476;-66
2024/04/14 09:08:28;;;;;;;5.07;4.00;;;21.50;99.90;;;;;;5380550;26;21026;-68
2024/04/14 09:10:54;;;;;;;5.30;4.47;;;21.50;99.90;;;;;;5392526;26;20542;-68
2024/04/14 09:13:24;;;;;;;7.07;4.67;;;21.60;99.90;;;;;;5399608;26;20466;-67
2024/04/14 09:15:50;;;;;;;4.77;4.13;;;21.70;99.90;;;;;;5391196;26;20276;-67
2024/04/14 09:18:16;;;;;;;4.53;4.10;;;21.80;99.90;;;;;;5401305;26;20843;-67
2024/04/14 09:20:41;;;;;;;6.20;4.70;;;21.90;99.90;;;;;;5398745;26;20515;-67
2024/04/14 09:23:07;;;;;;;7.73;4.53;;;21.80;99.90;;;;;;5398152;26;20237;-67
2024/04/14 09:25:35;;;;;;;5.90;4.70;;;22.00;99.90;;;;;;5392513;26;20242;-68
2024/04/14 09:28:11;;;;;;;6.77;4.97;;;22.10;99.90;;;;;;5395540;26;20459;-67
2024/04/14 09:30:38;;;;;;;4.30;3.90;;;22.20;99.90;;;;;;5393587;26;20529;-68
2024/04/14 09:33:04;;;;;;;6.30;4.67;;;22.30;99.90;;;;;;5392255;26;21081;-68
2024/04/14 09:35:30;;;;;;;4.43;3.97;;;22.40;99.90;;;;;;5391449;26;20466;-68
2024/04/14 09:37:55;;;;;;;4.83;4.33;;;22.50;99.90;;;;;;5393279;26;20505;-68
2024/04/14 09:40:25;;;;;;;6.77;4.37;;;22.40;99.90;;;;;;5386894;26;20280;-68
2024/04/14 09:42:57;;;;;;;8.63;4.20;;;22.60;99.90;;;;;;5386917;26;20229;-68
2024/04/14 09:45:24;;;;;;;5.00;4.50;;;22.70;99.90;;;;;;5390454;26;20519;-68
2024/04/14 09:47:53;;;;;;;4.43;3.90;;;22.50;99.90;;;;;;5397994;26;20512;-68
2024/04/14 09:50:22;;;;;;;4.83;4.03;;;22.70;99.90;;;;;;5389438;26;20509;-67
2024/04/14 09:52:52;;;;;;;6.40;5.57;;;22.70;99.90;;;;;;5389541;26;20650;-68
2024/04/14 09:55:21;;;;;;;6.47;4.80;;;22.70;99.90;;;;;;5390354;26;20471;-67
2024/04/14 09:57:49;;;;;;;6.73;4.60;;;22.80;99.90;;;;;;5390561;26;20455;-68
2024/04/14 10:00:18;;;;;;;9.70;3.90;;;22.80;99.90;;;;;;5389376;26;20514;-67
2024/04/14 10:02:55;;;;;;;7.30;4.77;;;22.90;99.90;;;;;;5391742;26;20467;-68
2024/04/14 10:05:22;;;;;;;5.50;4.67;;;23.00;99.90;;;;;;5393285;26;20526;-68
2024/04/14 10:07:49;;;;;;;4.83;3.70;;;23.00;99.90;;;;;;5378039;26;20988;-67
2024/04/14 10:10:15;;;;;;;6.87;4.03;;;23.10;99.90;;;;;;5389434;26;20520;-69
2024/04/14 10:12:41;;;;;;;16.00;3.90;;;22.90;99.90;;;;;;5395803;26;20471;-68
2024/04/14 10:15:07;;;;;;;5.87;4.13;;;22.80;99.90;;;;;;5391786;26;20284;-67
2024/04/14 10:17:33;;;;;;;8.57;4.53;;;22.90;99.90;;;;;;5385233;26;20245;-68
2024/04/14 10:20:07;;;;;;;6.27;4.17;;;22.90;99.90;;;;;;5398101;26;20958;-67
2024/04/14 10:22:40;;;;;;;5.57;3.43;;;22.90;99.90;;;;;;5390515;26;20530;-69
2024/04/14 10:25:20;;;;;;;8.00;4.50;;;23.00;99.90;;;;;;5394225;26;21086;-69
2024/04/14 10:27:46;;;;;;;5.53;3.63;;;23.20;99.90;;;;;;5390665;26;20455;-68
2024/04/14 10:30:20;;;;;;;7.47;3.87;;;23.10;99.90;;;;;;5395519;26;20470;-68
2024/04/14 10:32:46;;;;;;;5.53;4.00;;;23.40;99.90;;;;;;5385038;26;20331;-68
2024/04/14 10:35:15;;;;;;;4.83;4.13;;;23.50;99.90;;;;;;5398050;26;20470;-68
2024/04/14 10:37:40;;;;;;;6.90;4.07;;;23.50;99.90;;;;;;5396490;26;20248;-68
2024/04/14 10:40:07;;;;;;;4.00;3.60;;;23.50;99.90;;;;;;5390068;26;20593;-67
2024/04/14 10:42:37;;;;;;;6.70;3.80;;;23.70;99.90;;;;;;5382366;26;20803;-68
2024/04/14 10:45:03;;;;;;;8.23;3.70;;;23.90;99.90;;;;;;5392099;26;20462;-68
2024/04/14 10:47:29;;;;;;;6.83;3.90;;;24.00;99.90;;;;;;5391662;26;20502;-68
2024/04/14 10:49:55;;;;;;;4.17;3.77;;;24.00;99.90;;;;;;5396294;26;20571;-68
2024/04/14 10:52:21;;;;;;;5.70;3.73;;;24.20;99.90;;;;;;5392620;26;20553;-68
2024/04/14 10:54:46;;;;;;;6.07;3.70;;;24.30;99.90;;;;;;5387616;26;20312;-68
2024/04/14 10:57:13;;;;;;;8.07;3.60;;;24.40;99.90;;;;;;5390720;26;20514;-68
2024/04/14 10:59:39;;;;;;;5.67;3.80;;;24.50;99.90;;;;;;5391333;26;20848;-68
2024/04/14 11:02:05;;;;;;;4.73;3.43;;;24.50;99.90;;;;;;5386699;26;20472;-67
2024/04/14 11:04:31;;;;;;;6.10;3.87;;;24.60;99.90;;;;;;5390632;26;20234;-68
2024/04/14 11:06:57;;;;;;;3.77;3.40;;;24.60;99.90;;;;;;5390398;26;20333;-67
2024/04/14 11:09:25;;;;;;;4.27;3.50;;;24.60;99.90;;;;;;5385730;26;20471;-66
2024/04/14 11:11:51;;;;;;;10.43;3.63;;;24.30;99.90;;;;;;5388191;26;20510;-68
2024/04/14 11:14:21;;;;;;;7.03;3.37;;;24.20;99.90;;;;;;5394402;26;20466;-68
2024/04/14 11:16:50;;;;;;;5.57;4.00;;;24.30;99.90;;;;;;5381761;26;20532;-68
2024/04/14 11:19:25;;;;;;;5.00;3.93;;;24.30;99.90;;;;;;5389160;26;21068;-68
2024/04/14 11:21:50;;;;;;;5.13;4.63;;;24.40;99.90;;;;;;5383653;26;20583;-68
2024/04/14 11:24:16;;;;;;;6.20;4.33;;;24.40;99.90;;;;;;5384843;26;20832;-68
2024/04/14 11:26:41;;;;;;;5.47;3.87;;;24.40;99.90;;;;;;5382551;26;20646;-67
2024/04/14 11:29:07;;;;;;;5.30;4.03;;;24.50;99.90;;;;;;5386362;26;20723;-67
2024/04/14 11:31:37;;;;;;;8.47;3.73;;;24.50;99.90;;;;;;5383376;26;20241;-67
2024/04/14 11:34:03;;;;;;;4.60;3.40;;;24.50;99.90;;;;;;5390638;26;21135;-68
2024/04/14 11:36:35;;;;;;;5.07;3.80;;;24.50;99.90;;;;;;5392802;26;20496;-68
2024/04/14 11:39:04;;;;;;;5.40;3.93;;;24.60;99.90;;;;;;5390715;26;20566;-68
2024/04/14 11:41:30;;;;;;;4.37;3.60;;;24.70;99.90;;;;;;5394077;26;20479;-67
2024/04/14 11:43:56;;;;;;;4.17;3.67;;;24.70;99.90;;;;;;5387749;26;20989;-67
2024/04/14 11:46:22;;;;;;;3.83;3.43;;;24.70;99.60;;;;;;5392593;26;20495;-67
2024/04/14 11:48:48;;;;;;;5.43;3.90;;;24.80;99.60;;;;;;5388224;26;20462;-68
2024/04/14 11:51:14;;;;;;;3.70;3.40;;;24.80;99.40;;;;;;5393216;26;20515;-68
2024/04/14 11:53:39;;;;;;;5.30;4.80;;;25.00;99.30;;;;;;5388369;26;20236;-68
2024/04/14 11:56:05;;;;;;;4.33;3.93;;;25.20;99.20;;;;;;5386206;26;20226;-68
2024/04/14 11:58:31;;;;;;;4.53;3.67;;;25.40;99.10;;;;;;5398003;26;20331;-68
2024/04/14 12:00:57;;;;;;;4.20;3.37;;;25.70;98.20;;;;;;5396994;26;20518;-68
2024/04/14 12:03:23;;;;;;;6.23;3.80;;;26.00;97.30;;;;;;5390020;26;20348;-68
2024/04/14 12:05:48;;;;;;;5.10;3.60;;;26.40;97.10;;;;;;5396395;26;20472;-68
2024/04/14 12:08:14;;;;;;;7.87;3.77;;;26.90;96.40;;;;;;5392859;26;20291;-68
2024/04/14 12:10:40;;;;;;;3.70;3.30;;;27.60;95.50;;;;;;5395407;26;20684;-68
2024/04/14 12:13:06;;;;;;;4.40;3.80;;;28.00;94.10;;;;;;5394097;26;20264;-68
2024/04/14 12:15:32;;;;;;;5.33;3.93;;;28.70;92.90;;;;;;5386206;26;20473;-68
2024/04/14 12:17:57;;;;;;;4.27;3.53;;;29.10;91.80;;;;;;5389209;26;20745;-68
2024/04/14 12:20:23;;;;;;;4.67;3.30;;;29.70;87.60;;;;;;5387379;26;20338;-68
2024/04/14 12:22:50;;;;;;;5.40;3.60;;;29.80;85.70;;;;;;5384903;26;20325;-68
2024/04/14 12:25:15;;;;;;;6.93;3.13;;;29.80;82.20;;;;;;5390530;26;20893;-68
2024/04/14 12:27:41;;;;;;;3.97;3.23;;;29.40;82.00;;;;;;5398716;26;20901;-68
2024/04/14 12:30:06;;;;;;;5.33;3.30;;;29.30;83.00;;;;;;5404171;26;20355;-68
2024/04/14 12:32:32;;;;;;;4.37;3.20;;;29.40;82.80;;;;;;5391973;26;20280;-68
2024/04/14 12:34:59;;;;;;;4.00;3.60;;;30.00;80.40;;;;;;5377062;26;20285;-68
2024/04/14 12:37:25;;;;;;;7.23;3.30;;;29.80;78.60;;;;;;5387979;26;20225;-68
2024/04/14 12:39:52;;;;;;;4.73;3.60;;;29.70;76.80;;;;;;5395210;26;20456;-68